Time;durP1;ratioP1;P1;durP2;ratioP2;P2;SDS_P1;SDS_P2;PMS_P1;PMS_P2;Temp;Humidity;BMP_temperature;BMP_pressure;BME280_temperature;BME280_humidity;BME280_pressure;Samples;Min_cycle;Max_cycle;Signal;HPM_P1;HPM_P2
2023/01/22 00:01:28;;;;;;;12.47;9.97;;;;;;;;;;5011807;28;20211;-64
2023/01/22 00:03:53;;;;;;;13.33;10.77;;;;;;;;;;5030104;28;20277;-64
2023/01/22 00:06:19;;;;;;;12.43;10.30;;;;;;;;;;5019466;28;20227;-64
2023/01/22 00:08:45;;;;;;;12.80;10.33;;;;;;;;;;5025180;28;20214;-64
2023/01/22 00:11:10;;;;;;;11.87;9.50;;;;;;;;;;5033901;28;20345;-64
2023/01/22 00:13:36;;;;;;;12.57;9.60;;;;;;;;;;5034202;28;20303;-64
2023/01/22 00:16:01;;;;;;;11.77;9.57;;;;;;;;;;5032857;28;20204;-64
2023/01/22 00:18:26;;;;;;;12.77;10.47;;;;;;;;;;5032849;28;20231;-64
2023/01/22 00:20:52;;;;;;;12.93;9.73;;;;;;;;;;5033859;28;20239;-64
2023/01/22 00:23:17;;;;;;;13.33;10.30;;;;;;;;;;5031536;28;20754;-64
2023/01/22 00:25:43;;;;;;;13.27;10.70;;;;;;;;;;5033716;28;20212;-64
2023/01/22 00:28:08;;;;;;;12.80;9.87;;;;;;;;;;5032780;28;20299;-64
2023/01/22 00:30:33;;;;;;;13.43;11.07;;;;;;;;;;5033709;28;20215;-64
2023/01/22 00:32:59;;;;;;;10.93;9.23;;;;;;;;;;5033537;28;20219;-64
2023/01/22 00:35:24;;;;;;;11.63;9.67;;;;;;;;;;5032600;28;20231;-64
2023/01/22 00:37:49;;;;;;;11.77;9.80;;;;;;;;;;5033712;28;20626;-64
2023/01/22 00:40:15;;;;;;;12.97;9.70;;;;;;;;;;5032945;28;20216;-64
2023/01/22 00:42:40;;;;;;;11.57;9.47;;;;;;;;;;5013406;28;20213;-64
2023/01/22 00:45:06;;;;;;;12.77;9.73;;;;;;;;;;5013200;28;20208;-64
2023/01/22 00:47:31;;;;;;;10.90;9.20;;;;;;;;;;5012345;28;20675;-64
2023/01/22 00:49:56;;;;;;;12.10;9.40;;;;;;;;;;5014170;28;20287;-64
2023/01/22 00:52:22;;;;;;;11.57;9.33;;;;;;;;;;5032662;28;20208;-64
2023/01/22 00:54:47;;;;;;;12.63;9.47;;;;;;;;;;5033241;28;20222;-64
2023/01/22 00:57:12;;;;;;;12.03;8.93;;;;;;;;;;5032088;28;20711;-64
2023/01/22 00:59:37;;;;;;;11.43;8.80;;;;;;;;;;5033439;28;20342;-64
2023/01/22 01:02:03;;;;;;;10.50;8.50;;;;;;;;;;5032585;28;20212;-65
2023/01/22 01:04:28;;;;;;;11.10;8.27;;;;;;;;;;5032446;28;20215;-64
2023/01/22 01:06:53;;;;;;;11.70;8.80;;;;;;;;;;5021266;28;20283;-64
2023/01/22 01:09:19;;;;;;;10.57;8.23;;;;;;;;;;5022048;28;20223;-64
2023/01/22 01:11:45;;;;;;;10.73;8.37;;;;;;;;;;5032100;28;20247;-64
2023/01/22 01:14:11;;;;;;;11.13;8.30;;;;;;;;;;5014932;28;20212;-64
2023/01/22 01:16:36;;;;;;;10.60;8.10;;;;;;;;;;5032753;28;20281;-64
2023/01/22 01:19:02;;;;;;;10.83;9.07;;;;;;;;;;5014036;28;20238;-64
2023/01/22 01:21:27;;;;;;;11.73;9.17;;;;;;;;;;5032679;28;20281;-64
2023/01/22 01:23:54;;;;;;;10.20;8.10;;;;;;;;;;5032721;28;20687;-64
2023/01/22 01:26:20;;;;;;;10.10;7.83;;;;;;;;;;5031251;28;20278;-64
2023/01/22 01:28:46;;;;;;;11.97;9.07;;;;;;;;;;5032760;28;20219;-64
2023/01/22 01:31:13;;;;;;;11.20;9.00;;;;;;;;;;5031960;28;20220;-64
2023/01/22 01:33:38;;;;;;;10.60;8.47;;;;;;;;;;5014096;28;20212;-64
2023/01/22 01:36:04;;;;;;;11.27;9.27;;;;;;;;;;5014302;28;20223;-64
2023/01/22 01:38:30;;;;;;;10.40;8.53;;;;;;;;;;5014158;28;20299;-64
2023/01/22 01:40:55;;;;;;;10.37;8.40;;;;;;;;;;5028660;28;20608;-64
2023/01/22 01:43:20;;;;;;;11.10;8.57;;;;;;;;;;5012063;28;20217;-62
2023/01/22 01:45:45;;;;;;;12.17;8.80;;;;;;;;;;5011933;28;20269;-63
2023/01/22 01:48:17;;;;;;;10.53;8.77;;;;;;;;;;5002611;28;20251;-63
2023/01/22 01:50:43;;;;;;;12.43;8.40;;;;;;;;;;4985501;28;20275;-63
2023/01/22 01:53:08;;;;;;;12.33;8.93;;;;;;;;;;4998987;28;20252;-63
2023/01/22 01:55:34;;;;;;;16.47;12.93;;;;;;;;;;4995865;28;20278;-63
2023/01/22 01:58:00;;;;;;;14.27;11.97;;;;;;;;;;4995113;28;20216;-63
2023/01/22 02:00:26;;;;;;;13.17;9.27;;;;;;;;;;4979842;28;20228;-63
2023/01/22 02:02:51;;;;;;;10.60;9.20;;;;;;;;;;4985113;28;21116;-63
2023/01/22 02:05:19;;;;;;;11.20;8.80;;;;;;;;;;5001837;28;20759;-63
2023/01/22 02:07:44;;;;;;;13.17;9.17;;;;;;;;;;5002021;28;20758;-63
2023/01/22 02:10:10;;;;;;;13.97;9.33;;;;;;;;;;4993642;28;20232;-63
2023/01/22 02:12:35;;;;;;;11.83;9.53;;;;;;;;;;5002495;28;20369;-63
2023/01/22 02:15:02;;;;;;;12.80;10.00;;;;;;;;;;4983317;28;20333;-64
2023/01/22 02:17:27;;;;;;;13.10;10.70;;;;;;;;;;4978062;28;20840;-63
2023/01/22 02:19:53;;;;;;;12.83;9.57;;;;;;;;;;4995259;28;20214;-63
2023/01/22 02:22:19;;;;;;;11.63;9.07;;;;;;;;;;4994107;28;20705;-63
2023/01/22 02:24:44;;;;;;;11.90;9.10;;;;;;;;;;4984860;28;20270;-63
2023/01/22 02:27:10;;;;;;;11.50;9.13;;;;;;;;;;5001088;28;20230;-63
2023/01/22 02:29:35;;;;;;;12.00;8.83;;;;;;;;;;5001583;28;20229;-63
2023/01/22 02:32:00;;;;;;;14.40;8.80;;;;;;;;;;5001607;28;20217;-63
2023/01/22 02:34:26;;;;;;;10.67;8.80;;;;;;;;;;5001915;28;20258;-63
2023/01/22 02:36:51;;;;;;;11.93;8.97;;;;;;;;;;5001366;28;20243;-63
2023/01/22 02:39:16;;;;;;;12.27;9.17;;;;;;;;;;5002983;28;20363;-63
2023/01/22 02:41:42;;;;;;;11.47;8.47;;;;;;;;;;5003637;28;21166;-63
2023/01/22 02:44:07;;;;;;;11.93;9.17;;;;;;;;;;4993624;28;20224;-63
2023/01/22 02:46:32;;;;;;;12.97;9.53;;;;;;;;;;4999824;28;20219;-63
2023/01/22 02:48:58;;;;;;;12.47;8.90;;;;;;;;;;5000735;28;20758;-63
2023/01/22 02:51:24;;;;;;;11.20;9.13;;;;;;;;;;5001420;28;20212;-63
2023/01/22 02:53:49;;;;;;;13.40;9.00;;;;;;;;;;4984302;28;20684;-63
2023/01/22 02:56:15;;;;;;;11.33;8.60;;;;;;;;;;5000870;28;20239;-63
2023/01/22 02:58:40;;;;;;;12.87;8.70;;;;;;;;;;5001281;28;20303;-63
2023/01/22 03:01:19;;;;;;;10.80;8.57;;;;;;;;;;4998874;28;20216;-63
2023/01/22 03:03:45;;;;;;;12.27;9.20;;;;;;;;;;4996299;28;20215;-63
2023/01/22 03:06:11;;;;;;;10.50;8.43;;;;;;;;;;5007191;28;20249;-63
2023/01/22 03:08:36;;;;;;;12.90;9.20;;;;;;;;;;4979793;28;20212;-63
2023/01/22 03:11:01;;;;;;;11.60;8.40;;;;;;;;;;5000419;28;20224;-64
2023/01/22 03:21:42;;;;;;;12.17;8.77;;;;;;;;;;5020042;28;20304;-63
2023/01/22 03:24:08;;;;;;;11.90;8.60;;;;;;;;;;5015232;28;20232;-63
2023/01/22 03:26:34;;;;;;;11.23;9.17;;;;;;;;;;5013689;28;20222;-63
2023/01/22 03:28:59;;;;;;;10.70;8.87;;;;;;;;;;5012769;28;20215;-63
2023/01/22 03:31:24;;;;;;;13.60;8.47;;;;;;;;;;5016223;28;20219;-63
2023/01/22 03:33:49;;;;;;;12.33;9.20;;;;;;;;;;5020033;28;20310;-63
2023/01/22 03:36:15;;;;;;;10.90;8.43;;;;;;;;;;5020080;28;20270;-63
2023/01/22 03:38:40;;;;;;;10.90;7.80;;;;;;;;;;5019534;28;20215;-63
2023/01/22 03:41:08;;;;;;;11.63;8.97;;;;;;;;;;5014497;28;20208;-64
2023/01/22 03:43:33;;;;;;;10.83;8.80;;;;;;;;;;4982879;28;20220;-63
2023/01/22 03:46:00;;;;;;;11.37;8.43;;;;;;;;;;4998395;28;20217;-63
2023/01/22 03:48:25;;;;;;;11.70;8.90;;;;;;;;;;4976345;28;20216;-63
2023/01/22 03:50:51;;;;;;;11.73;9.30;;;;;;;;;;4993391;28;20858;-63
2023/01/22 03:53:16;;;;;;;11.43;8.67;;;;;;;;;;4994257;28;20641;-63
2023/01/22 03:55:41;;;;;;;13.93;10.27;;;;;;;;;;5000667;28;20274;-63
2023/01/22 03:58:07;;;;;;;10.40;9.20;;;;;;;;;;5000126;28;20215;-63
2023/01/22 04:00:32;;;;;;;12.17;8.60;;;;;;;;;;5000269;28;20215;-63
2023/01/22 04:02:57;;;;;;;10.93;8.67;;;;;;;;;;5000762;28;20221;-63
2023/01/22 04:05:22;;;;;;;10.77;8.40;;;;;;;;;;5000346;28;20220;-63
2023/01/22 04:07:49;;;;;;;9.50;8.03;;;;;;;;;;4999719;28;20699;-63
2023/01/22 04:10:14;;;;;;;10.30;8.17;;;;;;;;;;4978684;28;20228;-64
2023/01/22 04:12:40;;;;;;;10.70;8.33;;;;;;;;;;4993325;28;20227;-63
2023/01/22 04:15:05;;;;;;;11.67;8.70;;;;;;;;;;4992136;28;21199;-63
2023/01/22 04:17:31;;;;;;;11.40;9.10;;;;;;;;;;5000065;28;20213;-63
2023/01/22 04:19:56;;;;;;;10.53;9.23;;;;;;;;;;5000596;28;20327;-63
2023/01/22 04:22:21;;;;;;;11.80;9.10;;;;;;;;;;5004246;28;20208;-63
2023/01/22 04:24:46;;;;;;;10.77;8.50;;;;;;;;;;4995965;28;20217;-63
2023/01/22 04:27:12;;;;;;;12.70;8.83;;;;;;;;;;4972005;28;20692;-63
2023/01/22 04:29:37;;;;;;;13.40;9.93;;;;;;;;;;4990499;28;20307;-63
2023/01/22 04:32:02;;;;;;;11.23;9.13;;;;;;;;;;4990145;28;20213;-63
2023/01/22 04:34:28;;;;;;;13.97;9.50;;;;;;;;;;4989797;28;20568;-63
2023/01/22 04:36:53;;;;;;;11.97;8.77;;;;;;;;;;4987383;28;20221;-63
2023/01/22 04:39:18;;;;;;;10.77;9.27;;;;;;;;;;4979145;28;20576;-63
2023/01/22 04:41:43;;;;;;;10.37;8.50;;;;;;;;;;4977323;28;20251;-63
2023/01/22 04:44:09;;;;;;;10.87;9.00;;;;;;;;;;4999616;28;20302;-63
2023/01/22 04:46:34;;;;;;;11.97;9.27;;;;;;;;;;4996529;28;20232;-63
2023/01/22 04:48:59;;;;;;;12.03;8.67;;;;;;;;;;4992726;28;20217;-63
2023/01/22 04:51:25;;;;;;;11.93;9.20;;;;;;;;;;4994161;28;20216;-63
2023/01/22 04:53:50;;;;;;;12.50;9.50;;;;;;;;;;5000215;28;20227;-63
2023/01/22 04:56:17;;;;;;;11.40;9.67;;;;;;;;;;5002560;28;20212;-63
2023/01/22 04:58:42;;;;;;;13.13;10.00;;;;;;;;;;5004306;28;20287;-63
2023/01/22 05:01:07;;;;;;;12.37;9.57;;;;;;;;;;5003575;28;21237;-63
2023/01/22 05:03:33;;;;;;;11.50;9.10;;;;;;;;;;5023199;28;20620;-63
2023/01/22 05:06:01;;;;;;;12.27;9.03;;;;;;;;;;5019072;28;20610;-63
2023/01/22 05:08:26;;;;;;;12.13;8.90;;;;;;;;;;4986832;28;20437;-63
2023/01/22 05:10:52;;;;;;;11.20;8.80;;;;;;;;;;4995641;28;20232;-63
2023/01/22 05:13:17;;;;;;;11.43;9.20;;;;;;;;;;4995850;28;20276;-63
2023/01/22 05:15:42;;;;;;;11.80;9.37;;;;;;;;;;4997942;28;20227;-63
2023/01/22 05:18:08;;;;;;;11.83;9.00;;;;;;;;;;4967467;28;20316;-63
2023/01/22 05:20:33;;;;;;;12.33;9.07;;;;;;;;;;4984265;28;20225;-63
2023/01/22 05:22:58;;;;;;;10.80;9.03;;;;;;;;;;4983603;28;20283;-63
2023/01/22 05:25:24;;;;;;;12.10;9.00;;;;;;;;;;4982865;28;20677;-63
2023/01/22 05:27:49;;;;;;;10.93;8.50;;;;;;;;;;4983846;28;20644;-63
2023/01/22 05:30:14;;;;;;;10.13;8.47;;;;;;;;;;4983206;28;20693;-63
2023/01/22 05:32:40;;;;;;;14.20;9.50;;;;;;;;;;4976930;28;20217;-63
2023/01/22 05:35:05;;;;;;;12.77;9.20;;;;;;;;;;4975824;28;20213;-63
2023/01/22 05:37:31;;;;;;;13.10;8.67;;;;;;;;;;4975721;28;20918;-63
2023/01/22 05:39:56;;;;;;;11.13;8.40;;;;;;;;;;4980580;28;20323;-63
2023/01/22 05:42:21;;;;;;;9.17;7.60;;;;;;;;;;5002748;28;21192;-63
2023/01/22 05:44:47;;;;;;;11.20;9.13;;;;;;;;;;5002659;28;20220;-63
2023/01/22 05:47:12;;;;;;;10.77;8.70;;;;;;;;;;5002416;28;20248;-63
2023/01/22 05:49:37;;;;;;;10.10;8.83;;;;;;;;;;5002940;28;20315;-63
2023/01/22 05:52:03;;;;;;;10.23;8.87;;;;;;;;;;5004439;28;20212;-64
2023/01/22 05:54:28;;;;;;;10.80;7.83;;;;;;;;;;5013307;28;20215;-63
2023/01/22 05:56:53;;;;;;;9.53;8.10;;;;;;;;;;5012374;28;20217;-63
2023/01/22 05:59:18;;;;;;;8.73;7.67;;;;;;;;;;5011211;28;20243;-63
2023/01/22 06:01:44;;;;;;;10.37;8.67;;;;;;;;;;5011951;28;20223;-63
2023/01/22 06:04:09;;;;;;;9.53;7.70;;;;;;;;;;5010783;28;20300;-63
2023/01/22 06:06:34;;;;;;;9.70;7.67;;;;;;;;;;5020187;28;20236;-63
2023/01/22 06:09:00;;;;;;;8.80;7.80;;;;;;;;;;5024635;28;20270;-63
2023/01/22 06:11:26;;;;;;;9.23;8.23;;;;;;;;;;5031478;28;20253;-63
2023/01/22 06:13:51;;;;;;;9.63;7.67;;;;;;;;;;5031060;28;20211;-63
2023/01/22 06:16:16;;;;;;;8.63;7.30;;;;;;;;;;5031241;28;20234;-64
2023/01/22 06:18:42;;;;;;;8.87;7.37;;;;;;;;;;5031568;28;20243;-63
2023/01/22 06:21:07;;;;;;;10.37;7.63;;;;;;;;;;5030603;28;20220;-64
2023/01/22 06:23:32;;;;;;;9.60;7.40;;;;;;;;;;5031410;28;20270;-63
2023/01/22 06:25:58;;;;;;;9.77;7.70;;;;;;;;;;5031531;28;20203;-63
2023/01/22 06:28:24;;;;;;;9.83;8.20;;;;;;;;;;4991974;28;20640;-63
2023/01/22 06:30:49;;;;;;;9.53;7.93;;;;;;;;;;4977597;28;20308;-63
2023/01/22 06:33:15;;;;;;;9.83;7.50;;;;;;;;;;4993518;28;20220;-62
2023/01/22 06:35:40;;;;;;;8.67;7.70;;;;;;;;;;4977925;28;20635;-64
2023/01/22 06:38:05;;;;;;;8.57;6.83;;;;;;;;;;5020262;28;20220;-64
2023/01/22 06:40:31;;;;;;;8.50;6.77;;;;;;;;;;5021225;28;20661;-65
2023/01/22 06:42:57;;;;;;;8.63;6.90;;;;;;;;;;5000876;28;20213;-64
2023/01/22 06:45:23;;;;;;;8.97;7.07;;;;;;;;;;5001383;28;20216;-64
2023/01/22 06:47:49;;;;;;;9.57;6.67;;;;;;;;;;5001934;28;20232;-64
2023/01/22 06:50:14;;;;;;;9.03;6.60;;;;;;;;;;5001047;28;20221;-64
2023/01/22 06:52:39;;;;;;;7.53;6.30;;;;;;;;;;4996356;28;20223;-64
2023/01/22 06:55:05;;;;;;;8.83;6.50;;;;;;;;;;4975674;28;20312;-64
2023/01/22 06:57:30;;;;;;;7.77;6.47;;;;;;;;;;4999697;28;20220;-64
2023/01/22 06:59:55;;;;;;;9.03;6.37;;;;;;;;;;5000048;28;20220;-64
2023/01/22 07:02:21;;;;;;;7.87;6.33;;;;;;;;;;5000291;28;20212;-64
2023/01/22 07:04:46;;;;;;;8.43;6.37;;;;;;;;;;5001582;28;20224;-65
2023/01/22 07:07:11;;;;;;;7.33;5.60;;;;;;;;;;5001308;28;20695;-64
2023/01/22 07:09:36;;;;;;;6.80;5.50;;;;;;;;;;5001562;28;20676;-64
2023/01/22 07:12:02;;;;;;;6.80;5.83;;;;;;;;;;5000639;28;20230;-65
2023/01/22 07:14:27;;;;;;;8.33;6.27;;;;;;;;;;5026869;28;20278;-64
2023/01/22 07:16:52;;;;;;;7.20;5.93;;;;;;;;;;5029513;28;20273;-65
2023/01/22 07:19:18;;;;;;;6.97;5.50;;;;;;;;;;5029832;28;20311;-65
2023/01/22 07:21:43;;;;;;;8.03;6.90;;;;;;;;;;5030052;28;20573;-62
2023/01/22 07:24:09;;;;;;;7.97;6.33;;;;;;;;;;5011436;28;20222;-64
2023/01/22 07:26:34;;;;;;;6.80;5.78;;;;;;;;;;5012378;28;20981;-64
2023/01/22 07:28:59;;;;;;;8.13;6.90;;;;;;;;;;5011146;28;20304;-65
2023/01/22 07:31:25;;;;;;;8.37;5.97;;;;;;;;;;5009650;28;20840;-64
2023/01/22 07:33:50;;;;;;;7.47;5.90;;;;;;;;;;4992972;28;20216;-64
2023/01/22 07:36:15;;;;;;;8.00;6.13;;;;;;;;;;5010196;28;20688;-64
2023/01/22 07:38:40;;;;;;;7.53;5.70;;;;;;;;;;5010087;28;20213;-64
2023/01/22 07:41:06;;;;;;;7.27;5.33;;;;;;;;;;5004688;28;20240;-65
2023/01/22 07:43:31;;;;;;;7.63;5.67;;;;;;;;;;4973537;28;20215;-64
2023/01/22 07:45:59;;;;;;;7.93;5.70;;;;;;;;;;4990250;28;20216;-64
2023/01/22 07:48:24;;;;;;;17.87;14.70;;;;;;;;;;4973005;28;20574;-65
2023/01/22 07:50:50;;;;;;;8.77;5.90;;;;;;;;;;4999311;28;20220;-64
2023/01/22 07:53:15;;;;;;;6.27;5.60;;;;;;;;;;4991777;28;20276;-64
2023/01/22 07:55:40;;;;;;;8.07;5.70;;;;;;;;;;5015540;28;20274;-64
2023/01/22 07:58:06;;;;;;;7.10;5.73;;;;;;;;;;5029604;28;20239;-64
2023/01/22 08:00:33;;;;;;;6.23;5.43;;;;;;;;;;5023085;28;20208;-64
2023/01/22 08:02:58;;;;;;;7.15;6.45;;;;;;;;;;5017947;28;20430;-64
2023/01/22 08:05:24;;;;;;;9.67;7.50;;;;;;;;;;5019171;28;20676;-64
2023/01/22 08:07:49;;;;;;;33.30;21.87;;;;;;;;;;5018801;28;20232;-64
2023/01/22 08:10:15;;;;;;;8.60;6.73;;;;;;;;;;5018838;28;20216;-65
2023/01/22 08:12:42;;;;;;;7.23;5.50;;;;;;;;;;5018782;28;20211;-64
2023/01/22 08:15:08;;;;;;;16.07;11.67;;;;;;;;;;5018720;28;20196;-65
2023/01/22 08:17:33;;;;;;;7.37;5.23;;;;;;;;;;5018859;28;20205;-64
2023/01/22 08:19:58;;;;;;;9.70;8.00;;;;;;;;;;5018115;28;20212;-64
2023/01/22 08:22:24;;;;;;;6.90;5.80;;;;;;;;;;5017412;28;20208;-64
2023/01/22 08:24:49;;;;;;;7.10;5.70;;;;;;;;;;5018858;28;20212;-64
2023/01/22 08:27:15;;;;;;;7.83;6.70;;;;;;;;;;5017350;28;20551;-62
2023/01/22 08:29:40;;;;;;;7.43;5.50;;;;;;;;;;5014130;28;20635;-62
2023/01/22 08:32:05;;;;;;;21.33;17.77;;;;;;;;;;5013713;28;20240;-61
2023/01/22 08:34:31;;;;;;;8.73;7.63;;;;;;;;;;5013141;28;20291;-62
2023/01/22 08:36:56;;;;;;;7.93;6.53;;;;;;;;;;5012754;28;20298;-62
2023/01/22 08:39:21;;;;;;;10.73;8.47;;;;;;;;;;5013561;28;20288;-62
2023/01/22 08:41:47;;;;;;;11.33;9.00;;;;;;;;;;5013231;28;20223;-61
2023/01/22 08:44:13;;;;;;;7.77;5.77;;;;;;;;;;5012005;28;20220;-62
2023/01/22 08:46:39;;;;;;;6.00;4.90;;;;;;;;;;5012409;28;20692;-62
2023/01/22 08:49:05;;;;;;;11.13;8.90;;;;;;;;;;5014843;28;20894;-61
2023/01/22 08:51:30;;;;;;;7.97;6.47;;;;;;;;;;5032748;28;20240;-62
2023/01/22 08:53:56;;;;;;;11.53;7.90;;;;;;;;;;5032001;28;20204;-61
2023/01/22 08:56:21;;;;;;;6.80;4.80;;;;;;;;;;5030781;28;20265;-62
2023/01/22 08:58:49;;;;;;;7.80;5.20;;;;;;;;;;5033235;28;20270;-64
2023/01/22 09:01:15;;;;;;;6.83;5.07;;;;;;;;;;5024178;28;20258;-62
2023/01/22 09:03:41;;;;;;;6.30;4.70;;;;;;;;;;5012292;28;20992;-64
2023/01/22 09:06:06;;;;;;;6.17;5.00;;;;;;;;;;4998752;28;20229;-62
2023/01/22 09:08:31;;;;;;;5.97;5.37;;;;;;;;;;4980208;28;20424;-62
2023/01/22 09:10:57;;;;;;;7.00;4.90;;;;;;;;;;4992224;28;20275;-63
2023/01/22 09:13:22;;;;;;;6.37;5.10;;;;;;;;;;4995647;28;20592;-63
2023/01/22 09:15:47;;;;;;;5.67;4.70;;;;;;;;;;4987397;28;20665;-65
2023/01/22 09:18:13;;;;;;;6.73;4.50;;;;;;;;;;4988417;28;20701;-65
2023/01/22 09:20:38;;;;;;;5.93;4.57;;;;;;;;;;4985983;28;20712;-64
2023/01/22 09:23:03;;;;;;;6.33;4.83;;;;;;;;;;4986938;28;20758;-63
2023/01/22 09:25:28;;;;;;;6.47;4.30;;;;;;;;;;4984353;28;20962;-64
2023/01/22 09:27:56;;;;;;;5.90;4.30;;;;;;;;;;4980754;28;20359;-64
2023/01/22 09:30:22;;;;;;;7.13;4.43;;;;;;;;;;4980181;28;20232;-64
2023/01/22 09:32:47;;;;;;;6.07;4.10;;;;;;;;;;4984863;28;20288;-63
2023/01/22 09:35:12;;;;;;;5.63;4.40;;;;;;;;;;4987403;28;20247;-64
2023/01/22 09:37:38;;;;;;;6.47;4.50;;;;;;;;;;4983627;28;20227;-63
2023/01/22 09:40:03;;;;;;;7.57;5.73;;;;;;;;;;5005635;28;20235;-65
2023/01/22 09:42:30;;;;;;;6.93;4.63;;;;;;;;;;4973727;28;20223;-65
2023/01/22 09:44:56;;;;;;;11.00;7.80;;;;;;;;;;4969499;28;20260;-65
2023/01/22 09:47:30;;;;;;;24.90;17.63;;;;;;;;;;4985264;28;20252;-64
2023/01/22 09:49:59;;;;;;;6.77;4.90;;;;;;;;;;4979988;28;21000;-64
2023/01/22 09:52:26;;;;;;;8.37;6.13;;;;;;;;;;4979030;28;20221;-64
2023/01/22 09:54:51;;;;;;;5.70;4.30;;;;;;;;;;4982837;28;20209;-64
2023/01/22 09:57:17;;;;;;;12.97;10.57;;;;;;;;;;4969725;28;20228;-64
2023/01/22 09:59:44;;;;;;;6.70;5.03;;;;;;;;;;4969581;28;20571;-64
2023/01/22 10:02:17;;;;;;;7.53;4.90;;;;;;;;;;4968981;28;20215;-64
2023/01/22 10:04:43;;;;;;;6.37;4.77;;;;;;;;;;4969979;28;20584;-64
2023/01/22 10:07:11;;;;;;;6.30;5.03;;;;;;;;;;4998267;28;20272;-64
2023/01/22 10:09:38;;;;;;;5.57;4.87;;;;;;;;;;5005492;28;20230;-64
2023/01/22 10:12:11;;;;;;;5.93;4.67;;;;;;;;;;5002989;28;20227;-64
2023/01/22 10:14:36;;;;;;;5.87;4.40;;;;;;;;;;5005933;28;20211;-64
2023/01/22 10:17:02;;;;;;;7.30;5.10;;;;;;;;;;5005953;28;20220;-65
2023/01/22 10:19:29;;;;;;;9.70;6.97;;;;;;;;;;5005963;28;20219;-64
2023/01/22 10:21:58;;;;;;;6.07;5.00;;;;;;;;;;4989130;28;20240;-64
2023/01/22 10:24:23;;;;;;;7.67;5.70;;;;;;;;;;4987759;28;20200;-64
2023/01/22 10:26:51;;;;;;;7.07;4.97;;;;;;;;;;4989609;28;20219;-65
2023/01/22 10:29:20;;;;;;;6.78;5.50;;;;;;;;;;5023639;28;20417;-64
2023/01/22 10:31:46;;;;;;;7.37;4.83;;;;;;;;;;5025362;28;20585;-63
2023/01/22 10:34:13;;;;;;;8.03;5.70;;;;;;;;;;5023981;28;20223;-64
2023/01/22 10:36:38;;;;;;;7.57;5.47;;;;;;;;;;5024948;28;20216;-64
2023/01/22 10:39:04;;;;;;;6.70;4.87;;;;;;;;;;5024307;28;20227;-64
2023/01/22 10:41:30;;;;;;;7.93;6.63;;;;;;;;;;4998879;28;20311;-64
2023/01/22 10:44:05;;;;;;;6.73;5.30;;;;;;;;;;5006220;28;20763;-64
2023/01/22 10:46:31;;;;;;;6.43;4.70;;;;;;;;;;4980270;28;20231;-64
2023/01/22 10:48:58;;;;;;;6.20;4.73;;;;;;;;;;4987372;28;20259;-64
2023/01/22 10:51:26;;;;;;;6.67;4.70;;;;;;;;;;5005294;28;20248;-64
2023/01/22 10:53:53;;;;;;;7.20;4.80;;;;;;;;;;4988927;28;20220;-65
2023/01/22 10:56:25;;;;;;;6.53;5.10;;;;;;;;;;5005134;28;20201;-65
2023/01/22 10:58:50;;;;;;;6.60;5.03;;;;;;;;;;4988035;28;20568;-65
2023/01/22 11:01:26;;;;;;;6.50;4.70;;;;;;;;;;5004372;28;20216;-65
2023/01/22 11:03:51;;;;;;;7.30;5.43;;;;;;;;;;4988347;28;20223;-65
2023/01/22 11:06:18;;;;;;;6.50;4.70;;;;;;;;;;4989673;28;20851;-65
2023/01/22 11:08:46;;;;;;;5.53;4.67;;;;;;;;;;5004668;28;20794;-65
2023/01/22 11:11:12;;;;;;;7.43;4.60;;;;;;;;;;5029992;28;20231;-65
2023/01/22 11:13:37;;;;;;;6.17;4.67;;;;;;;;;;5023332;28;20219;-65
2023/01/22 11:16:05;;;;;;;7.07;5.50;;;;;;;;;;5023243;28;20224;-69
2023/01/22 11:18:38;;;;;;;7.90;5.47;;;;;;;;;;5023298;28;20223;-65
2023/01/22 11:21:15;;;;;;;5.97;4.67;;;;;;;;;;5024450;28;20296;-65
2023/01/22 11:23:48;;;;;;;6.27;4.93;;;;;;;;;;5023439;28;20218;-65
2023/01/22 11:26:13;;;;;;;7.60;5.70;;;;;;;;;;5003691;28;20214;-65
2023/01/22 11:28:42;;;;;;;8.60;4.83;;;;;;;;;;5020488;28;20216;-65
2023/01/22 11:31:15;;;;;;;7.47;5.03;;;;;;;;;;5023005;28;20231;-65
2023/01/22 11:33:48;;;;;;;7.87;5.30;;;;;;;;;;5023862;28;20827;-65
2023/01/22 11:36:16;;;;;;;7.40;5.23;;;;;;;;;;5022251;28;20222;-65
2023/01/22 11:38:50;;;;;;;6.83;5.70;;;;;;;;;;5003760;28;20216;-65
2023/01/22 11:41:19;;;;;;;7.07;5.43;;;;;;;;;;5017603;28;20212;-65
2023/01/22 11:43:54;;;;;;;9.00;5.70;;;;;;;;;;5021861;28;20250;-65
2023/01/22 11:46:29;;;;;;;7.40;5.50;;;;;;;;;;5023768;28;20223;-65
2023/01/22 11:48:54;;;;;;;8.40;5.37;;;;;;;;;;5023236;28;20227;-65
2023/01/22 11:51:22;;;;;;;8.33;6.07;;;;;;;;;;5010438;28;20316;-65
2023/01/22 11:53:57;;;;;;;9.10;6.50;;;;;;;;;;5004868;28;20204;-65
2023/01/22 11:56:28;;;;;;;7.50;5.70;;;;;;;;;;5021708;28;20215;-65
2023/01/22 11:59:05;;;;;;;6.57;5.27;;;;;;;;;;5023754;28;20323;-65
2023/01/22 12:01:39;;;;;;;7.43;5.17;;;;;;;;;;5024113;28;20205;-65
2023/01/22 12:04:10;;;;;;;6.93;5.30;;;;;;;;;;5027482;28;20301;-65
2023/01/22 12:06:40;;;;;;;6.70;5.00;;;;;;;;;;5011984;28;20252;-65
2023/01/22 12:09:09;;;;;;;7.90;5.33;;;;;;;;;;4996728;28;20212;-65
2023/01/22 12:11:38;;;;;;;7.23;5.47;;;;;;;;;;5000143;28;20243;-65
2023/01/22 12:14:09;;;;;;;7.00;5.47;;;;;;;;;;4994277;28;20217;-65
2023/01/22 12:16:47;;;;;;;8.30;6.63;;;;;;;;;;4994684;28;20288;-65
2023/01/22 12:19:27;;;;;;;6.40;5.43;;;;;;;;;;4992313;28;20224;-65
2023/01/22 12:21:56;;;;;;;6.63;5.00;;;;;;;;;;4993280;28;20220;-65
2023/01/22 12:24:29;;;;;;;8.20;6.10;;;;;;;;;;4998431;28;20216;-65
2023/01/22 12:27:00;;;;;;;6.90;5.60;;;;;;;;;;4992358;28;20213;-65
2023/01/22 12:29:32;;;;;;;6.77;5.53;;;;;;;;;;4992846;28;20213;-65
2023/01/22 12:31:59;;;;;;;7.87;5.13;;;;;;;;;;4993080;28;20286;-65
2023/01/22 12:34:26;;;;;;;7.10;5.53;;;;;;;;;;4993220;28;20220;-65
2023/01/22 12:36:51;;;;;;;7.07;5.67;;;;;;;;;;4993036;28;20224;-65
2023/01/22 12:39:21;;;;;;;6.80;5.13;;;;;;;;;;4994021;28;20225;-65
2023/01/22 12:41:51;;;;;;;9.10;6.37;;;;;;;;;;4995407;28;20367;-65
2023/01/22 12:44:20;;;;;;;6.97;5.80;;;;;;;;;;4995789;28;20715;-65
2023/01/22 12:46:46;;;;;;;8.70;6.57;;;;;;;;;;4995489;28;20209;-65
2023/01/22 12:49:15;;;;;;;8.10;6.63;;;;;;;;;;5013089;28;20217;-64
2023/01/22 12:51:41;;;;;;;8.20;6.17;;;;;;;;;;4979612;28;20256;-64
2023/01/22 12:54:16;;;;;;;7.00;5.67;;;;;;;;;;4969995;28;20221;-64
2023/01/22 12:56:41;;;;;;;9.70;7.20;;;;;;;;;;4982954;28;20220;-64
2023/01/22 12:59:22;;;;;;;7.73;5.73;;;;;;;;;;4988266;28;20256;-63
2023/01/22 13:01:59;;;;;;;7.87;5.80;;;;;;;;;;4970395;28;20696;-63
2023/01/22 13:04:30;;;;;;;8.80;6.53;;;;;;;;;;4988075;28;20209;-63
2023/01/22 13:07:04;;;;;;;6.97;6.03;;;;;;;;;;4981236;28;20236;-63
2023/01/22 13:09:33;;;;;;;6.90;5.73;;;;;;;;;;4994942;28;20308;-63
2023/01/22 13:12:07;;;;;;;8.20;5.50;;;;;;;;;;5010230;28;20220;-64
2023/01/22 13:14:32;;;;;;;8.50;6.47;;;;;;;;;;5007365;28;20241;-63
2023/01/22 13:16:59;;;;;;;8.57;6.17;;;;;;;;;;5007749;28;20218;-63
2023/01/22 13:19:25;;;;;;;7.97;6.40;;;;;;;;;;5026016;28;20306;-64
2023/01/22 13:21:50;;;;;;;8.27;5.53;;;;;;;;;;5008338;28;20224;-63
2023/01/22 13:24:16;;;;;;;8.40;6.07;;;;;;;;;;5022540;28;20256;-63
2023/01/22 13:26:48;;;;;;;7.80;5.80;;;;;;;;;;4990230;28;20678;-64
2023/01/22 13:29:21;;;;;;;8.50;7.03;;;;;;;;;;5005750;28;20259;-63
2023/01/22 13:31:50;;;;;;;9.37;7.57;;;;;;;;;;5007637;28;20217;-63
2023/01/22 13:34:15;;;;;;;8.63;7.00;;;;;;;;;;5006364;28;20216;-64
2023/01/22 13:36:45;;;;;;;7.50;6.33;;;;;;;;;;5006841;28;20781;-64
2023/01/22 13:39:17;;;;;;;7.93;6.40;;;;;;;;;;4989405;28;20219;-63
2023/01/22 13:41:42;;;;;;;6.70;5.60;;;;;;;;;;5007434;28;20209;-63
2023/01/22 13:44:11;;;;;;;7.13;5.57;;;;;;;;;;4988441;28;20892;-63
2023/01/22 13:46:36;;;;;;;7.57;6.13;;;;;;;;;;4989676;28;20200;-63
2023/01/22 13:49:04;;;;;;;8.70;6.37;;;;;;;;;;5006450;28;20278;-63
2023/01/22 13:51:29;;;;;;;9.33;7.73;;;;;;;;;;5006293;28;20235;-63
2023/01/22 13:53:55;;;;;;;8.67;6.73;;;;;;;;;;5007028;28;20594;-63
2023/01/22 13:56:21;;;;;;;8.03;6.20;;;;;;;;;;4988613;28;20243;-64
2023/01/22 13:58:46;;;;;;;7.93;6.10;;;;;;;;;;4992799;28;20212;-63
2023/01/22 14:01:12;;;;;;;7.53;5.80;;;;;;;;;;5012099;28;20232;-64
2023/01/22 14:03:38;;;;;;;8.97;6.03;;;;;;;;;;5010842;28;20614;-64
2023/01/22 14:06:04;;;;;;;7.20;5.37;;;;;;;;;;5012873;28;20223;-63
2023/01/22 14:08:29;;;;;;;7.17;5.20;;;;;;;;;;5032012;28;20222;-64
2023/01/22 14:10:55;;;;;;;6.83;5.53;;;;;;;;;;5027049;28;20216;-64
2023/01/22 14:13:20;;;;;;;7.47;5.70;;;;;;;;;;5011155;28;20213;-63
2023/01/22 14:15:52;;;;;;;8.87;6.23;;;;;;;;;;5012308;28;20212;-64
2023/01/22 14:18:19;;;;;;;8.77;5.87;;;;;;;;;;5010867;28;20318;-64
2023/01/22 14:20:45;;;;;;;8.43;5.93;;;;;;;;;;5011798;28;20639;-64
2023/01/22 14:23:10;;;;;;;7.20;5.70;;;;;;;;;;5010826;28;20209;-64
2023/01/22 14:25:36;;;;;;;8.87;6.10;;;;;;;;;;5018447;28;20228;-64
2023/01/22 14:28:02;;;;;;;7.30;6.20;;;;;;;;;;5009982;28;20680;-63
2023/01/22 14:30:27;;;;;;;6.90;5.83;;;;;;;;;;5011672;28;20275;-64
2023/01/22 14:32:52;;;;;;;7.37;5.63;;;;;;;;;;5011121;28;20212;-64
2023/01/22 14:35:19;;;;;;;7.83;6.07;;;;;;;;;;5011138;28;20209;-64
2023/01/22 14:37:44;;;;;;;7.13;5.77;;;;;;;;;;5011672;28;20576;-63
2023/01/22 14:40:10;;;;;;;8.23;5.90;;;;;;;;;;5010453;28;20223;-64